Time;durP1;ratioP1;P1;durP2;ratioP2;P2;SDS_P1;SDS_P2;PMS_P1;PMS_P2;Temp;Humidity;BMP_temperature;BMP_pressure;BME280_temperature;BME280_humidity;BME280_pressure;Samples;Min_cycle;Max_cycle;Signal;HPM_P1;HPM_P2
2023/10/25 00:01:29;;;;;;;10.90;4.53;;;;;;;8.87;100.00;99914.75;4934256;29;20028;-88
2023/10/25 00:03:55;;;;;;;14.32;3.90;;;;;;;8.78;100.00;99910.97;4917596;29;20390;-88
2023/10/25 00:06:21;;;;;;;11.13;4.13;;;;;;;8.85;100.00;99908.56;4925604;29;20833;-88
2023/10/25 00:08:46;;;;;;;9.23;4.57;;;;;;;8.83;100.00;99912.28;4932590;29;20036;-88
2023/10/25 00:11:11;;;;;;;9.20;4.90;;;;;;;8.82;100.00;99912.41;4918536;29;20067;-88
2023/10/25 00:13:37;;;;;;;10.40;6.20;;;;;;;8.80;100.00;99906.25;4921757;29;20107;-88
2023/10/25 00:16:03;;;;;;;21.98;5.88;;;;;;;8.78;100.00;99900.06;4921877;29;20437;-88
2023/10/25 00:18:29;;;;;;;10.00;4.72;;;;;;;8.74;100.00;99898.56;4921859;29;20081;-89
2023/10/25 00:20:55;;;;;;;16.63;5.47;;;;;;;8.71;100.00;99904.34;4951594;29;20078;-88
2023/10/25 00:23:21;;;;;;;17.35;5.78;;;;;;;8.73;100.00;99910.50;4945710;29;20035;-88
2023/10/25 00:25:49;;;;;;;23.45;5.50;;;;;;;8.64;100.00;99904.84;4948614;28;20034;-88
2023/10/25 00:28:14;;;;;;;12.38;4.43;;;;;;;8.69;100.00;99899.00;4917319;29;20087;-88
2023/10/25 00:30:40;;;;;;;14.23;5.45;;;;;;;8.64;100.00;99902.13;4953459;29;20027;-88
2023/10/25 00:33:06;;;;;;;16.67;5.60;;;;;;;8.64;100.00;99898.50;4947294;28;20078;-88
2023/10/25 00:35:32;;;;;;;13.63;5.13;;;;;;;8.62;100.00;99908.69;4964835;28;20081;-88
2023/10/25 00:37:58;;;;;;;9.93;4.60;;;;;;;8.58;100.00;99899.91;4923502;29;20058;-88
2023/10/25 00:40:25;;;;;;;15.60;5.25;;;;;;;8.50;100.00;99898.88;4937253;29;20046;-89
2023/10/25 00:42:50;;;;;;;14.75;5.10;;;;;;;8.39;100.00;99903.31;4938402;29;20051;-88
2023/10/25 00:45:16;;;;;;;13.52;5.75;;;;;;;8.32;100.00;99899.41;4930402;29;20421;-87
2023/10/25 00:47:43;;;;;;;12.50;5.60;;;;;;;8.28;100.00;99901.53;4937252;29;20042;-88
2023/10/25 00:50:10;;;;;;;8.77;5.40;;;;;;;8.34;100.00;99907.44;4944261;29;20039;-88
2023/10/25 00:52:36;;;;;;;12.05;5.43;;;;;;;8.34;100.00;99902.00;4937365;29;20031;-88
2023/10/25 00:55:03;;;;;;;10.75;5.35;;;;;;;8.36;100.00;99902.72;4928883;29;20035;-88
2023/10/25 00:57:29;;;;;;;16.95;6.03;;;;;;;8.35;100.00;99895.56;4922733;29;20044;-88
2023/10/25 00:59:54;;;;;;;14.68;5.88;;;;;;;8.36;100.00;99903.59;4951326;29;20042;-87
2023/10/25 01:02:20;;;;;;;19.58;6.10;;;;;;;8.28;100.00;99901.53;4919030;29;20039;-87
2023/10/25 01:04:47;;;;;;;11.80;5.80;;;;;;;8.32;100.00;99902.13;4905552;29;21346;-87
2023/10/25 01:07:14;;;;;;;11.77;5.85;;;;;;;8.33;100.00;99901.13;4948276;29;20157;-88
2023/10/25 01:09:40;;;;;;;11.75;5.82;;;;;;;8.28;100.00;99898.81;4902409;29;20522;-87
2023/10/25 01:12:07;;;;;;;12.32;6.10;;;;;;;8.27;100.00;99888.88;4962740;28;20087;-88
2023/10/25 01:14:33;;;;;;;12.82;5.70;;;;;;;8.27;100.00;99898.94;4919843;29;20040;-88
2023/10/25 01:17:00;;;;;;;13.68;5.45;;;;;;;8.28;100.00;99890.63;4939745;29;20442;-88
2023/10/25 01:19:25;;;;;;;16.77;5.95;;;;;;;8.30;100.00;99887.75;4928430;29;20035;-88
2023/10/25 01:21:52;;;;;;;16.63;6.20;;;;;;;8.25;100.00;99885.41;4936313;29;20028;-87
2023/10/25 01:24:18;;;;;;;9.20;5.25;;;;;;;8.20;100.00;99878.63;4930804;29;20039;-87
2023/10/25 01:26:44;;;;;;;14.95;6.10;;;;;;;8.23;100.00;99876.50;4933619;29;20041;-88
2023/10/25 01:29:10;;;;;;;19.80;5.57;;;;;;;8.23;100.00;99881.09;4942706;29;20035;-87
2023/10/25 01:31:37;;;;;;;13.20;6.35;;;;;;;8.23;100.00;99873.78;4960101;28;20053;-87
2023/10/25 01:34:03;;;;;;;14.07;5.68;;;;;;;8.25;100.00;99866.34;4923366;29;20035;-87
2023/10/25 01:36:29;;;;;;;14.07;6.35;;;;;;;8.22;100.00;99858.41;4934247;29;20028;-87
2023/10/25 01:38:55;;;;;;;15.32;5.75;;;;;;;8.26;100.00;99861.72;4934933;29;20036;-88
2023/10/25 01:41:20;;;;;;;16.48;5.72;;;;;;;8.28;100.00;99860.63;4938267;28;20038;-88
2023/10/25 01:43:46;;;;;;;15.63;5.90;;;;;;;8.33;100.00;99867.53;4924355;29;20049;-88
2023/10/25 01:46:12;;;;;;;12.90;5.13;;;;;;;8.25;100.00;99863.59;4940387;29;20102;-87
2023/10/25 01:48:40;;;;;;;9.40;5.32;;;;;;;8.20;100.00;99852.22;4925968;29;20035;-89
2023/10/25 01:51:08;;;;;;;13.60;5.57;;;;;;;8.23;100.00;99840.19;4937763;29;20126;-88
2023/10/25 01:53:34;;;;;;;18.98;6.30;;;;;;;8.27;100.00;99837.06;4924820;29;20035;-88
2023/10/25 01:56:00;;;;;;;14.23;5.93;;;;;;;8.20;100.00;99840.44;4923664;29;20062;-88
2023/10/25 01:58:25;;;;;;;16.73;6.45;;;;;;;8.22;100.00;99843.91;4931811;29;20042;-89
2023/10/25 02:00:50;;;;;;;18.50;6.63;;;;;;;8.17;100.00;99825.22;4933445;29;20035;-88
2023/10/25 02:03:16;;;;;;;13.38;6.53;;;;;;;8.21;100.00;99823.94;4941826;29;20074;-87
2023/10/25 02:05:41;;;;;;;11.65;6.07;;;;;;;8.31;100.00;99820.44;4923000;29;20117;-88
2023/10/25 02:08:07;;;;;;;12.27;6.30;;;;;;;8.37;100.00;99815.31;4936985;29;20043;-88
2023/10/25 02:10:33;;;;;;;14.82;6.40;;;;;;;8.25;100.00;99809.06;4945956;29;20043;-88
2023/10/25 02:12:59;;;;;;;20.58;6.05;;;;;;;8.32;100.00;99809.41;4943223;29;20452;-88
2023/10/25 02:15:25;;;;;;;14.50;6.40;;;;;;;8.36;100.00;99815.44;4940343;29;20046;-88
2023/10/25 02:17:53;;;;;;;17.92;6.22;;;;;;;8.37;100.00;99806.28;4922258;29;20061;-87
2023/10/25 02:20:20;;;;;;;18.13;6.45;;;;;;;8.38;100.00;99799.81;4936601;29;20055;-88
2023/10/25 02:22:47;;;;;;;11.23;5.97;;;;;;;8.44;100.00;99799.31;4937874;28;21974;-88
2023/10/25 02:25:13;;;;;;;17.05;6.65;;;;;;;8.44;100.00;99800.19;4922785;29;20422;-88
2023/10/25 02:27:38;;;;;;;12.75;6.20;;;;;;;8.49;100.00;99804.38;4939851;29;20058;-88
2023/10/25 02:30:05;;;;;;;20.58;5.70;;;;;;;8.52;100.00;99810.41;4911877;29;20075;-89
2023/10/25 02:32:30;;;;;;;17.02;6.43;;;;;;;8.55;100.00;99803.84;4937532;29;20123;-88
2023/10/25 02:34:55;;;;;;;15.10;6.18;;;;;;;8.50;100.00;99787.88;4923314;29;20170;-88
2023/10/25 02:37:23;;;;;;;20.25;6.95;;;;;;;8.57;100.00;99791.78;4923523;29;20098;-88
2023/10/25 02:39:49;;;;;;;17.35;6.68;;;;;;;8.49;100.00;99790.72;4951654;28;20031;-88
2023/10/25 02:42:14;;;;;;;13.80;7.05;;;;;;;8.55;100.00;99785.59;4939012;29;20062;-86
2023/10/25 02:44:40;;;;;;;18.38;5.97;;;;;;;8.59;100.00;99776.16;4923783;29;20031;-88
2023/10/25 02:47:08;;;;;;;16.45;6.13;;;;;;;8.53;100.00;99784.88;4939010;29;20047;-87
2023/10/25 02:49:33;;;;;;;16.58;6.80;;;;;;;8.62;100.00;99780.47;4951541;29;20126;-88
2023/10/25 02:51:59;;;;;;;14.90;6.25;;;;;;;8.57;100.00;99772.69;4926539;29;20043;-88
2023/10/25 02:54:24;;;;;;;16.38;6.32;;;;;;;8.61;100.00;99776.03;4921649;29;20042;-87
2023/10/25 02:56:50;;;;;;;15.70;5.68;;;;;;;8.69;100.00;99767.13;4907684;29;20039;-87
2023/10/25 02:59:15;;;;;;;15.63;7.22;;;;;;;8.69;100.00;99765.28;4953011;29;20496;-88
2023/10/25 03:01:41;;;;;;;11.43;6.25;;;;;;;8.63;100.00;99755.78;4939630;29;20066;-88
2023/10/25 03:04:06;;;;;;;15.70;6.20;;;;;;;8.64;100.00;99765.69;4921587;29;20498;-88
2023/10/25 03:06:31;;;;;;;13.65;6.50;;;;;;;8.65;100.00;99751.03;4939299;29;20082;-88
2023/10/25 03:08:57;;;;;;;18.15;6.53;;;;;;;8.61;100.00;99746.88;4935922;29;20036;-88
2023/10/25 03:11:25;;;;;;;15.00;6.25;;;;;;;8.63;100.00;99744.84;4914932;29;20043;-88
2023/10/25 03:13:50;;;;;;;24.55;6.28;;;;;;;8.62;100.00;99745.00;4920174;29;20031;-88
2023/10/25 03:16:16;;;;;;;14.57;6.57;;;;;;;8.64;100.00;99738.41;4919755;29;20035;-87
2023/10/25 03:18:44;;;;;;;17.73;5.78;;;;;;;8.68;100.00;99729.94;4936846;29;20378;-87
2023/10/25 03:21:09;;;;;;;19.73;6.38;;;;;;;8.70;100.00;99736.13;4937247;29;20027;-87
2023/10/25 03:23:35;;;;;;;16.02;6.43;;;;;;;8.64;100.00;99732.94;4923671;29;20031;-88
2023/10/25 03:26:05;;;;;;;20.35;5.47;;;;;;;8.67;100.00;99731.78;4951922;29;20042;-88
2023/10/25 03:28:31;;;;;;;10.40;5.00;;;;;;;8.71;100.00;99733.25;4921710;29;20031;-88
2023/10/25 03:30:57;;;;;;;21.10;5.68;;;;;;;8.76;100.00;99739.16;4945989;29;20033;-88
2023/10/25 03:33:22;;;;;;;33.22;7.18;;;;;;;8.80;100.00;99731.56;4919147;29;20126;-88
2023/10/25 03:35:54;;;;;;;19.88;6.55;;;;;;;8.80;100.00;99726.97;4919575;29;20504;-88
2023/10/25 03:38:20;;;;;;;18.60;5.00;;;;;;;8.79;100.00;99722.53;4962909;28;20067;-88
2023/10/25 03:40:46;;;;;;;11.90;4.32;;;;;;;8.83;100.00;99714.91;4953321;29;20139;-89
2023/10/25 03:43:13;;;;;;;16.90;5.05;;;;;;;8.91;100.00;99717.81;4950103;28;20154;-88
2023/10/25 03:45:38;;;;;;;20.10;5.10;;;;;;;8.89;100.00;99718.97;4921799;29;20042;-88
2023/10/25 03:48:04;;;;;;;12.18;5.07;;;;;;;8.85;100.00;99712.91;4922189;29;20034;-87
2023/10/25 03:50:30;;;;;;;13.55;4.97;;;;;;;8.89;100.00;99719.81;4933962;29;20493;-87
2023/10/25 03:52:55;;;;;;;14.23;4.75;;;;;;;8.90;100.00;99716.06;4917472;29;20045;-88
2023/10/25 03:55:21;;;;;;;11.95;4.47;;;;;;;8.92;100.00;99713.22;4919464;29;20034;-88
2023/10/25 03:57:47;;;;;;;7.65;4.28;;;;;;;8.95;100.00;99702.91;4950870;28;20053;-88
2023/10/25 04:00:13;;;;;;;8.85;5.00;;;;;;;8.92;100.00;99705.91;4948245;29;20129;-87
2023/10/25 04:02:40;;;;;;;15.32;5.00;;;;;;;8.92;100.00;99703.16;4954709;28;20043;-87
2023/10/25 04:05:07;;;;;;;10.18;3.95;;;;;;;8.92;100.00;99697.72;4936214;29;20598;-88
2023/10/25 04:07:32;;;;;;;11.35;4.10;;;;;;;8.92;100.00;99702.28;4940326;29;20099;-89
2023/10/25 04:09:58;;;;;;;21.60;4.30;;;;;;;8.91;100.00;99706.03;4952122;29;20027;-89
2023/10/25 04:12:24;;;;;;;14.25;4.60;;;;;;;8.91;100.00;99695.13;4939902;29;20118;-88
2023/10/25 04:14:49;;;;;;;14.95;4.47;;;;;;;8.96;100.00;99690.94;4930437;29;20118;-88
2023/10/25 04:17:15;;;;;;;14.23;5.03;;;;;;;8.99;100.00;99685.22;4924309;29;20039;-90
2023/10/25 04:19:41;;;;;;;16.77;3.90;;;;;;;8.95;100.00;99689.25;4938332;29;20631;-89
2023/10/25 04:22:07;;;;;;;13.00;4.88;;;;;;;8.92;100.00;99692.25;4936313;29;20039;-90
2023/10/25 04:24:33;;;;;;;16.75;4.20;;;;;;;8.94;100.00;99690.25;4939235;29;20027;-87
2023/10/25 04:27:03;;;;;;;10.32;4.50;;;;;;;8.91;100.00;99689.66;4937189;28;20031;-90
2023/10/25 04:29:29;;;;;;;16.42;4.70;;;;;;;8.91;100.00;99692.38;4935493;29;20036;-93
2023/10/25 04:31:55;;;;;;;16.02;5.05;;;;;;;8.94;100.00;99689.38;4939389;28;20105;-91
2023/10/25 04:34:21;;;;;;;18.17;5.40;;;;;;;8.93;100.00;99688.50;4935615;29;20043;-91
2023/10/25 04:36:48;;;;;;;18.38;5.55;;;;;;;8.93;100.00;99684.91;4955004;29;20139;-93
2023/10/25 04:39:13;;;;;;;9.65;5.60;;;;;;;8.89;100.00;99687.06;4939516;29;20090;-87
2023/10/25 04:41:40;;;;;;;18.30;5.35;;;;;;;8.94;100.00;99670.28;4948879;28;20047;-91
2023/10/25 04:44:08;;;;;;;19.92;5.53;;;;;;;8.95;100.00;99675.59;4946226;29;20039;-88
2023/10/25 04:46:33;;;;;;;13.25;5.25;;;;;;;8.97;100.00;99670.84;4922976;29;20493;-87
2023/10/25 04:48:59;;;;;;;14.68;5.28;;;;;;;8.95;100.00;99663.78;4924315;29;20038;-88
2023/10/25 04:51:26;;;;;;;10.88;4.80;;;;;;;8.97;100.00;99672.72;4922643;29;20042;-89
2023/10/25 04:53:55;;;;;;;8.27;4.47;;;;;;;9.00;100.00;99653.31;4937069;29;20032;-88
2023/10/25 04:56:23;;;;;;;14.10;5.10;;;;;;;9.02;100.00;99654.91;4931865;29;20042;-89
2023/10/25 04:58:49;;;;;;;10.93;4.85;;;;;;;9.05;100.00;99653.78;4938496;29;20039;-96
2023/10/25 05:27:07;;;;;;;6.20;3.30;;;;;;;9.09;100.00;99610.66;5630295;23;20055;-96
2023/10/25 05:29:33;;;;;;;7.85;3.17;;;;;;;9.09;100.00;99608.78;4936134;29;20086;-96
2023/10/25 05:32:03;;;;;;;7.03;3.10;;;;;;;9.00;100.00;99601.44;4956053;28;20031;-96
2023/10/25 05:34:30;;;;;;;10.30;3.17;;;;;;;9.00;100.00;99605.06;4967469;29;20043;-96
2023/10/25 05:36:55;;;;;;;6.85;3.00;;;;;;;9.10;100.00;99596.88;4925938;29;20039;-96
2023/10/25 05:39:21;;;;;;;11.13;2.83;;;;;;;9.15;100.00;99600.03;4947234;28;20031;-96
2023/10/25 05:41:50;;;;;;;9.50;2.90;;;;;;;9.17;100.00;99608.94;4949964;29;20148;-96
2023/10/25 05:44:16;;;;;;;11.55;3.10;;;;;;;9.08;100.00;99595.28;4954801;29;20389;-96
2023/10/25 05:46:42;;;;;;;5.78;2.65;;;;;;;9.12;100.00;99611.22;4930914;29;20126;-96
2023/10/25 05:49:09;;;;;;;9.90;2.78;;;;;;;9.08;100.00;99592.53;4961043;29;20035;-96
2023/10/25 05:51:36;;;;;;;16.67;3.63;;;;;;;9.11;100.00;99595.00;4946826;28;20028;-96
2023/10/25 05:54:03;;;;;;;10.55;2.83;;;;;;;9.15;100.00;99586.38;4915219;29;20039;-96
2023/10/25 05:56:29;;;;;;;9.32;2.50;;;;;;;9.09;100.00;99586.94;4940520;29;20489;-96
2023/10/25 05:58:56;;;;;;;11.77;2.72;;;;;;;9.11;100.00;99589.53;4927424;29;20031;-96
2023/10/25 07:05:13;;;;;;;9.05;2.30;;;;;;;9.21;100.00;99505.72;4863184;29;1542258;-85
2023/10/25 07:07:40;;;;;;;7.32;2.90;;;;;;;9.30;100.00;99490.34;4897792;29;20035;-84
2023/10/25 07:10:08;;;;;;;12.38;2.60;;;;;;;9.30;100.00;99488.47;4915552;29;20055;-86
2023/10/25 07:12:36;;;;;;;9.55;2.30;;;;;;;9.32;100.00;99483.72;4900938;29;20624;-89
2023/10/25 07:15:02;;;;;;;14.60;2.35;;;;;;;9.31;100.00;99476.53;4885562;29;20071;-91
2023/10/25 07:17:27;;;;;;;6.80;2.30;;;;;;;9.32;100.00;99477.41;4902098;29;20483;-87
2023/10/25 07:19:54;;;;;;;9.05;2.20;;;;;;;9.33;100.00;99469.06;4885418;29;20036;-86
2023/10/25 07:22:20;;;;;;;14.23;2.60;;;;;;;9.36;100.00;99462.41;4870410;29;20043;-90
2023/10/25 07:24:45;;;;;;;7.03;2.05;;;;;;;9.44;100.00;99464.41;4886506;29;20036;-90
2023/10/25 07:27:11;;;;;;;5.70;2.45;;;;;;;9.49;100.00;99460.22;4864005;29;20420;-86
2023/10/25 07:29:36;;;;;;;13.68;4.03;;;;;;;9.52;100.00;99456.34;4900791;29;20176;-87
2023/10/25 07:32:06;;;;;;;10.15;2.38;;;;;;;9.55;100.00;99456.03;4917600;29;20028;-85
2023/10/25 07:34:32;;;;;;;11.32;2.95;;;;;;;9.45;100.00;99441.56;4887393;29;20047;-85
2023/10/25 07:36:57;;;;;;;11.50;2.42;;;;;;;9.56;100.00;99450.44;4867612;29;20032;-88
2023/10/25 07:39:22;;;;;;;8.13;2.70;;;;;;;9.52;100.00;99450.88;4884396;29;20118;-87
2023/10/25 07:41:48;;;;;;;10.88;2.70;;;;;;;9.41;100.00;99437.38;4868862;29;20215;-84
2023/10/25 07:44:13;;;;;;;12.52;2.70;;;;;;;9.45;100.00;99436.09;4897816;29;20047;-86
2023/10/25 07:46:39;;;;;;;4.93;2.40;;;;;;;9.49;100.00;99440.25;4902419;29;20043;-87
2023/10/25 07:49:04;;;;;;;6.57;2.95;;;;;;;9.46;100.00;99441.41;4882986;29;20655;-84
2023/10/25 07:51:30;;;;;;;11.65;3.20;;;;;;;9.48;100.00;99436.66;4875285;29;20509;-87
2023/10/25 07:53:55;;;;;;;8.52;3.15;;;;;;;9.60;100.00;99436.47;4883330;29;20036;-85
2023/10/25 07:56:21;;;;;;;8.85;3.03;;;;;;;9.70;100.00;99434.53;4883748;29;20059;-85
2023/10/25 07:58:46;;;;;;;10.93;2.95;;;;;;;9.73;100.00;99415.09;4894023;29;20032;-85
2023/10/25 08:01:12;;;;;;;24.63;4.28;;;;;;;9.70;100.00;99413.53;4897824;29;20030;-85
2023/10/25 08:03:38;;;;;;;6.28;3.03;;;;;;;9.72;100.00;99416.09;4901098;29;20187;-84
2023/10/25 08:06:09;;;;;;;14.07;3.20;;;;;;;9.76;100.00;99406.59;4931635;29;20148;-85
2023/10/25 08:08:35;;;;;;;9.15;3.25;;;;;;;9.74;100.00;99404.03;4918540;29;20037;-87
2023/10/25 08:11:05;;;;;;;11.13;3.17;;;;;;;9.83;100.00;99401.38;4912317;29;20402;-83
2023/10/25 08:13:33;;;;;;;10.52;3.33;;;;;;;9.90;100.00;99400.63;4916671;29;20055;-86
2023/10/25 08:16:02;;;;;;;8.45;3.45;;;;;;;9.92;100.00;99395.88;4901742;29;20042;-85
2023/10/25 08:18:29;;;;;;;7.75;3.50;;;;;;;9.93;100.00;99391.25;4921120;29;20510;-84
2023/10/25 08:20:55;;;;;;;14.93;3.70;;;;;;;9.96;100.00;99385.47;4933738;29;20038;-85
2023/10/25 08:23:21;;;;;;;9.75;3.65;;;;;;;10.05;100.00;99389.16;4917221;29;20027;-84
2023/10/25 08:25:46;;;;;;;12.13;3.63;;;;;;;10.07;100.00;99379.78;4900639;29;20475;-84
2023/10/25 08:28:12;;;;;;;8.07;3.63;;;;;;;10.07;100.00;99379.78;4913905;29;20516;-85
2023/10/25 08:30:59;;;;;;;5.43;3.00;;;;;;;10.07;100.00;99365.25;4900731;29;20031;-94
2023/10/25 08:33:24;;;;;;;5.88;3.35;;;;;;;10.17;100.00;99367.94;4895284;29;20107;-87
2023/10/25 08:36:01;;;;;;;8.05;4.35;;;;;;;10.21;100.00;99361.13;4921966;29;20032;-88
2023/10/25 08:38:26;;;;;;;11.93;3.80;;;;;;;10.21;100.00;99358.38;4919503;29;20091;-87
2023/10/25 08:40:52;;;;;;;11.95;3.97;;;;;;;10.27;100.00;99349.56;4904628;29;20035;-88
2023/10/25 08:43:20;;;;;;;10.32;3.85;;;;;;;10.34;100.00;99347.94;4931394;29;20044;-86
2023/10/25 08:45:45;;;;;;;7.03;4.22;;;;;;;10.40;100.00;99351.94;4900221;29;20035;-87
2023/10/25 08:48:11;;;;;;;10.48;4.40;;;;;;;10.43;100.00;99344.25;4937641;29;20091;-89
2023/10/25 08:50:38;;;;;;;8.07;3.80;;;;;;;10.50;100.00;99335.41;4912042;29;20508;-87
2023/10/25 08:53:03;;;;;;;8.95;4.22;;;;;;;10.54;100.00;99342.28;4914289;29;20036;-87
2023/10/25 08:55:28;;;;;;;11.63;4.10;;;;;;;10.44;100.00;99337.75;4917423;29;20034;-84
2023/10/25 08:57:55;;;;;;;17.52;4.28;;;;;;;10.46;100.00;99337.59;4921886;29;20037;-86
2023/10/25 09:00:22;;;;;;;8.95;3.38;;;;;;;10.50;100.00;99327.22;4898584;29;20039;-85
2023/10/25 09:02:48;;;;;;;10.38;4.13;;;;;;;10.54;100.00;99328.59;4913871;29;20103;-88
2023/10/25 09:05:16;;;;;;;6.20;3.67;;;;;;;10.55;100.00;99322.13;4913503;29;20646;-88
2023/10/25 09:07:41;;;;;;;9.25;4.22;;;;;;;10.44;100.00;99309.53;4927664;29;20055;-85
2023/10/25 09:10:19;;;;;;;12.25;4.25;;;;;;;10.43;100.00;99305.09;4917228;29;20486;-87
2023/10/25 09:12:46;;;;;;;6.90;4.05;;;;;;;10.37;100.00;99300.25;4898121;29;20040;-84
2023/10/25 09:15:11;;;;;;;7.60;4.40;;;;;;;10.35;100.00;99294.94;4929273;29;20031;-83
2023/10/25 09:17:39;;;;;;;10.13;4.43;;;;;;;10.27;100.00;99295.69;4925590;29;20032;-86
2023/10/25 09:20:08;;;;;;;13.38;4.65;;;;;;;10.27;100.00;99290.22;4896138;29;20035;-86
2023/10/25 09:22:33;;;;;;;8.93;4.97;;;;;;;10.24;100.00;99270.53;4899017;29;20035;-85
2023/10/25 09:25:01;;;;;;;15.88;5.30;;;;;;;10.20;100.00;99266.38;4901788;29;20414;-85
2023/10/25 09:27:27;;;;;;;17.92;4.80;;;;;;;10.19;100.00;99264.69;4914912;29;20030;-85
2023/10/25 09:29:54;;;;;;;10.77;5.05;;;;;;;10.17;100.00;99259.38;4901411;29;20487;-84
2023/10/25 09:32:21;;;;;;;11.38;5.60;;;;;;;10.17;100.00;99255.78;4931700;29;20109;-85
2023/10/25 09:34:47;;;;;;;12.77;5.72;;;;;;;10.16;100.00;99265.84;4933806;29;20122;-85
2023/10/25 09:37:15;;;;;;;12.38;5.78;;;;;;;10.19;100.00;99253.75;4913854;29;20035;-84
2023/10/25 09:39:41;;;;;;;15.52;5.65;;;;;;;10.20;100.00;99248.13;4916204;29;20505;-86
2023/10/25 09:42:10;;;;;;;11.70;5.50;;;;;;;10.22;100.00;99242.50;4889448;29;20023;-85
2023/10/25 09:44:50;;;;;;;10.85;5.20;;;;;;;10.26;100.00;99252.09;4904423;29;20051;-85
2023/10/25 09:47:18;;;;;;;11.25;5.60;;;;;;;10.20;100.00;99237.19;4919284;29;20494;-84
2023/10/25 09:49:48;;;;;;;11.68;5.32;;;;;;;10.23;100.00;99235.97;4917053;29;20571;-83
2023/10/25 09:52:28;;;;;;;10.25;5.03;;;;;;;10.21;100.00;99230.66;4902628;29;20123;-84
2023/10/25 09:55:20;;;;;;;13.85;5.45;;;;;;;10.21;100.00;99235.28;4918211;29;20783;-86
2023/10/25 09:57:47;;;;;;;11.02;4.88;;;;;;;10.24;100.00;99230.34;4936258;29;20101;-84
2023/10/25 10:00:14;;;;;;;18.70;5.65;;;;;;;10.20;100.00;99233.56;4902347;29;20047;-88
2023/10/25 10:03:06;;;;;;;12.57;5.85;;;;;;;10.17;100.00;99242.97;4904698;29;20427;-83
2023/10/25 10:05:46;;;;;;;17.30;5.90;;;;;;;10.10;100.00;99236.41;4935664;29;20044;-85
2023/10/25 10:08:17;;;;;;;24.52;6.88;;;;;;;10.02;100.00;99241.81;4920776;29;20050;-86
2023/10/25 10:10:56;;;;;;;19.55;6.93;;;;;;;9.93;100.00;99225.31;4931911;29;20039;-86
2023/10/25 10:13:22;;;;;;;19.13;7.65;;;;;;;9.92;100.00;99220.91;4934739;29;20063;-89
2023/10/25 10:16:05;;;;;;;27.88;9.68;;;;;;;9.94;100.00;99218.00;4918395;29;20032;-85
2023/10/25 10:18:35;;;;;;;18.90;8.88;;;;;;;9.92;100.00;99209.97;4915702;29;20027;-85
2023/10/25 10:21:05;;;;;;;14.70;7.57;;;;;;;9.88;100.00;99210.44;4933125;29;20035;-85
2023/10/25 10:23:49;;;;;;;16.08;8.05;;;;;;;9.84;100.00;99196.22;4914275;29;20199;-88
2023/10/25 10:26:53;;;;;;;13.60;7.05;;;;;;;9.87;100.00;99186.81;4932683;29;20024;-89
2023/10/25 10:29:31;;;;;;;17.45;7.80;;;;;;;9.86;100.00;99182.41;4922640;29;20035;-86
2023/10/25 10:32:02;;;;;;;17.35;7.53;;;;;;;9.91;100.00;99171.84;4931439;29;20074;-85
2023/10/25 10:34:42;;;;;;;21.30;7.47;;;;;;;9.98;100.00;99167.44;4933515;29;20043;-84
2023/10/25 10:37:22;;;;;;;20.30;6.70;;;;;;;10.01;100.00;99164.38;4933272;29;20042;-85
2023/10/25 10:40:17;;;;;;;13.52;7.05;;;;;;;10.05;100.00;99148.50;4902024;29;20043;-85
2023/10/25 10:42:42;;;;;;;14.07;7.55;;;;;;;10.04;100.00;99155.88;4916789;29;20113;-85
2023/10/25 10:45:14;;;;;;;20.40;7.82;;;;;;;10.00;100.00;99148.16;4902548;29;20071;-86
2023/10/25 10:47:52;;;;;;;14.88;7.93;;;;;;;10.11;100.00;99140.53;4917688;29;20035;-87
2023/10/25 10:50:23;;;;;;;17.17;8.00;;;;;;;10.06;100.00;99134.69;4929600;29;20039;-96
2023/10/25 10:52:51;;;;;;;17.77;7.72;;;;;;;10.04;100.00;99125.78;4910059;29;20039;-94
2023/10/25 10:55:20;;;;;;;18.65;7.88;;;;;;;10.06;100.00;99128.38;4907423;29;20051;-95
2023/10/25 10:57:46;;;;;;;13.63;7.45;;;;;;;10.10;100.00;99113.34;4924202;29;20055;-94
2023/10/25 11:00:19;;;;;;;16.23;7.43;;;;;;;10.18;100.00;99121.59;4937649;29;20059;-95
2023/10/25 11:02:51;;;;;;;27.95;7.50;;;;;;;10.19;100.00;99095.13;4941783;29;20023;-94
2023/10/25 11:05:20;;;;;;;14.80;6.57;;;;;;;10.16;100.00;99106.38;4942806;29;20020;-94
2023/10/25 11:07:51;;;;;;;18.77;7.20;;;;;;;10.20;100.00;99105.03;4930641;29;20028;-96
2023/10/25 11:10:17;;;;;;;14.48;8.05;;;;;;;10.12;100.00;99098.50;4940978;29;20031;-95
2023/10/25 11:12:45;;;;;;;15.73;7.15;;;;;;;10.13;100.00;99085.66;4950458;29;20083;-96
2023/10/25 11:15:13;;;;;;;15.85;6.93;;;;;;;10.12;100.00;99078.50;4934773;29;20023;-96
2023/10/25 11:17:40;;;;;;;13.95;7.10;;;;;;;10.14;100.00;99084.66;4920023;29;20047;-96
2023/10/25 11:25:21;;;;;;;12.93;6.90;;;;;;;10.36;100.00;99074.19;5151233;23;20075;-96
2023/10/25 11:27:47;;;;;;;18.50;6.88;;;;;;;10.40;100.00;99070.97;4926342;28;20020;-96
2023/10/25 11:30:14;;;;;;;15.23;7.30;;;;;;;10.39;100.00;99069.25;4943460;29;20026;-96
2023/10/25 11:32:42;;;;;;;17.25;6.70;;;;;;;10.35;100.00;99064.28;4929175;29;20404;-96
2023/10/25 11:35:21;;;;;;;13.93;5.80;;;;;;;10.37;100.00;99059.50;4939730;29;20403;-96
2023/10/25 11:37:46;;;;;;;12.70;5.72;;;;;;;10.34;100.00;99060.69;4938922;29;20115;-96
2023/10/25 11:40:12;;;;;;;15.07;6.03;;;;;;;10.36;100.00;99057.78;4930094;29;20507;-96
2023/10/25 11:42:38;;;;;;;13.23;6.45;;;;;;;10.32;100.00;99053.66;4921301;29;20031;-96
2023/10/25 11:45:04;;;;;;;15.25;6.22;;;;;;;10.34;100.00;99049.75;4915118;29;20093;-96
2023/10/25 11:47:34;;;;;;;13.60;5.53;;;;;;;10.35;100.00;99046.00;4947290;29;20027;-96
2023/10/25 11:50:16;;;;;;;11.07;6.13;;;;;;;10.34;100.00;99032.47;4931370;29;20035;-96
2023/10/25 11:52:43;;;;;;;20.05;6.15;;;;;;;10.32;100.00;99032.63;4933895;29;20030;-96
2023/10/25 11:55:08;;;;;;;10.73;6.15;;;;;;;10.34;100.00;99027.84;4947979;29;20150;-96
2023/10/25 11:57:34;;;;;;;15.63;6.07;;;;;;;10.29;100.00;99027.47;4940193;29;20098;-96
2023/10/25 11:59:59;;;;;;;15.75;6.30;;;;;;;10.33;100.00;99019.81;4918559;29;20050;-84
2023/10/25 12:02:26;;;;;;;9.30;5.70;;;;;;;10.31;100.00;99019.94;4899824;29;20036;-85
2023/10/25 12:04:53;;;;;;;11.63;6.13;;;;;;;10.21;100.00;99011.03;4933314;29;20063;-86
2023/10/25 12:07:21;;;;;;;13.45;6.57;;;;;;;10.34;100.00;99014.19;4934778;29;20122;-85
2023/10/25 12:09:48;;;;;;;96.80;8.60;;;;;;;10.40;100.00;99001.72;4951573;29;20122;-84
2023/10/25 12:12:14;;;;;;;16.58;6.63;;;;;;;10.44;100.00;99001.19;4948895;29;20600;-83
2023/10/25 12:14:39;;;;;;;14.52;6.50;;;;;;;10.35;100.00;98993.16;4934720;29;20130;-83
2023/10/25 12:17:06;;;;;;;14.02;6.40;;;;;;;10.41;100.00;98985.16;4907346;29;20031;-82
2023/10/25 12:19:36;;;;;;;22.00;7.30;;;;;;;10.41;100.00;98995.22;4927962;29;20178;-82
2023/10/25 12:22:13;;;;;;;18.90;7.88;;;;;;;10.48;100.00;98982.59;4916731;29;20118;-82
2023/10/25 12:24:40;;;;;;;17.73;7.22;;;;;;;10.54;100.00;98972.84;4933000;29;20050;-82
2023/10/25 12:27:07;;;;;;;17.58;7.50;;;;;;;10.46;100.00;98971.81;4933965;29;20035;-83
2023/10/25 12:29:34;;;;;;;15.10;6.90;;;;;;;10.53;100.00;98977.47;4922047;29;20039;-83
2023/10/25 12:32:02;;;;;;;16.85;8.10;;;;;;;10.53;100.00;98979.38;4935712;29;20031;-83
2023/10/25 12:34:28;;;;;;;18.35;7.90;;;;;;;10.51;100.00;98964.97;4908399;29;20031;-82
2023/10/25 12:36:54;;;;;;;17.23;8.30;;;;;;;10.54;100.00;98965.47;4951155;29;20035;-83
2023/10/25 12:39:20;;;;;;;14.77;8.38;;;;;;;10.50;100.00;98957.81;4931860;29;20035;-83
2023/10/25 12:41:45;;;;;;;14.45;8.65;;;;;;;10.52;100.00;98953.00;4948260;29;20069;-82
2023/10/25 12:44:12;;;;;;;15.95;9.00;;;;;;;10.53;100.00;98949.25;4916262;29;20047;-82
2023/10/25 12:46:41;;;;;;;12.68;8.77;;;;;;;10.52;100.00;98948.38;4937060;29;20026;-86
2023/10/25 12:49:11;;;;;;;19.67;8.68;;;;;;;10.62;100.00;98943.59;4948282;29;20038;-84
2023/10/25 12:51:37;;;;;;;17.75;9.10;;;;;;;10.58;100.00;98936.78;4918741;29;20047;-87
2023/10/25 12:54:02;;;;;;;14.13;8.63;;;;;;;10.57;100.00;98936.94;4930827;29;20079;-83
2023/10/25 12:56:29;;;;;;;21.13;9.63;;;;;;;10.61;100.00;98928.22;4915456;29;20031;-84
2023/10/25 12:58:55;;;;;;;14.25;8.95;;;;;;;10.61;100.00;98925.50;4929060;29;20023;-82
2023/10/25 13:01:23;;;;;;;13.50;8.95;;;;;;;10.60;100.00;98921.03;4948173;29;20031;-84